createdAt,value
2018-07-15T00:01:38.429Z,21.69
2018-07-15T00:04:07.210Z,21.62
2018-07-15T00:06:36.593Z,21.56
2018-07-15T00:09:06.172Z,21.55
2018-07-15T00:11:34.625Z,21.55
2018-07-15T00:14:03.973Z,21.51
2018-07-15T00:16:32.649Z,21.42
2018-07-15T00:19:01.556Z,21.38
2018-07-15T00:21:30.509Z,21.31
2018-07-15T00:23:59.345Z,21.21
2018-07-15T00:26:27.796Z,21.19
2018-07-15T00:28:56.583Z,21.18
2018-07-15T00:31:25.413Z,21.15
2018-07-15T00:33:54.048Z,21.16
2018-07-15T00:36:23.042Z,21.21
2018-07-15T00:38:51.488Z,21.24
2018-07-15T00:41:20.429Z,21.23
2018-07-15T00:43:49.409Z,21.21
2018-07-15T00:46:18.822Z,21.21
2018-07-15T00:48:47.709Z,21.17
2018-07-15T00:51:17.997Z,21.15
2018-07-15T00:53:46.466Z,21.13
2018-07-15T00:56:14.908Z,21.10
2018-07-15T00:58:43.599Z,21.02
2018-07-15T01:01:12.093Z,20.97
2018-07-15T01:03:40.537Z,20.98
2018-07-15T01:06:09.563Z,20.98
2018-07-15T01:08:38.094Z,20.97
2018-07-15T01:11:06.541Z,20.98
2018-07-15T01:13:34.984Z,20.94
2018-07-15T01:16:03.436Z,20.87
2018-07-15T01:18:31.941Z,20.83
2018-07-15T01:21:00.791Z,20.85
2018-07-15T01:23:29.949Z,20.80
2018-07-15T01:25:58.614Z,20.78
2018-07-15T01:28:27.070Z,20.81
2018-07-15T01:30:55.505Z,20.81
2018-07-15T01:33:24.364Z,20.78
2018-07-15T01:35:53.353Z,20.79
2018-07-15T01:38:21.785Z,20.81
2018-07-15T01:40:50.417Z,20.78
2018-07-15T01:43:19.107Z,20.71
2018-07-15T01:45:48.338Z,20.69
2018-07-15T01:48:16.821Z,20.60
2018-07-15T01:50:46.061Z,20.51
2018-07-15T01:53:14.501Z,20.46
2018-07-15T01:55:42.946Z,20.44
2018-07-15T01:58:12.025Z,20.39
2018-07-15T02:00:40.813Z,20.35
2018-07-15T02:03:09.349Z,20.27
2018-07-15T02:05:38.094Z,20.24
2018-07-15T02:08:07.012Z,20.21
2018-07-15T02:10:35.467Z,20.18
2018-07-15T02:13:04.157Z,20.17
2018-07-15T02:15:32.905Z,20.13
2018-07-15T02:18:01.357Z,20.10
2018-07-15T02:20:30.477Z,20.08
2018-07-15T02:22:59.302Z,20.04
2018-07-15T02:25:27.762Z,19.99
2018-07-15T02:27:56.217Z,19.97
2018-07-15T02:30:25.081Z,19.96
2018-07-15T02:32:53.725Z,19.99
2018-07-15T02:35:22.253Z,20.03
2018-07-15T02:37:50.802Z,20.01
2018-07-15T02:40:19.610Z,20.00
2018-07-15T02:42:48.671Z,19.99
2018-07-15T02:45:17.394Z,19.99
2018-07-15T02:47:46.173Z,20.00
2018-07-15T02:50:15.162Z,20.07
2018-07-15T02:52:43.601Z,20.16
2018-07-15T02:55:12.038Z,20.17
2018-07-15T02:57:40.597Z,20.15
2018-07-15T03:00:09.313Z,20.13
2018-07-15T03:02:37.965Z,20.13
2018-07-15T03:05:06.705Z,20.12
2018-07-15T03:07:35.621Z,20.13
2018-07-15T03:10:04.445Z,20.15
2018-07-15T03:12:33.293Z,20.16
2018-07-15T03:15:02.277Z,20.18
2018-07-15T03:17:30.764Z,20.19
2018-07-15T03:19:59.551Z,20.18
2018-07-15T03:22:28.330Z,20.16
2018-07-15T03:24:57.374Z,20.23
2018-07-15T03:27:26.336Z,20.28
2018-07-15T03:29:54.760Z,20.27
2018-07-15T03:32:23.481Z,20.27
2018-07-15T03:34:52.270Z,20.24
2018-07-15T03:37:20.781Z,20.21
2018-07-15T03:39:49.462Z,20.20
2018-07-15T03:42:18.649Z,20.23
2018-07-15T03:44:47.405Z,20.26
2018-07-15T03:47:15.977Z,20.29
2018-07-15T03:49:45.109Z,20.32
2018-07-15T03:52:13.553Z,20.33
2018-07-15T03:54:42.009Z,20.39
2018-07-15T03:57:11.141Z,20.39
2018-07-15T03:59:40.163Z,20.46
2018-07-15T04:02:08.617Z,20.50
2018-07-15T04:04:37.435Z,20.55
2018-07-15T04:07:06.050Z,20.60
2018-07-15T04:09:34.481Z,20.64
2018-07-15T04:12:03.322Z,20.68
2018-07-15T04:14:31.997Z,20.72
2018-07-15T04:17:00.449Z,20.79
2018-07-15T04:19:29.309Z,20.83
2018-07-15T04:21:57.789Z,20.83
2018-07-15T04:24:26.240Z,20.86
2018-07-15T04:26:55.057Z,20.88
2018-07-15T04:29:23.786Z,20.90
2018-07-15T04:31:52.465Z,20.94
2018-07-15T04:34:21.421Z,20.87
2018-07-15T04:36:49.869Z,21.04
2018-07-15T04:39:19.094Z,21.11
2018-07-15T04:41:48.033Z,21.18
2018-07-15T04:44:16.488Z,21.19
2018-07-15T04:46:45.201Z,21.24
2018-07-15T04:49:14.097Z,21.30
2018-07-15T04:51:42.586Z,21.39
2018-07-15T04:54:11.017Z,21.46
2018-07-15T04:56:39.895Z,21.52
2018-07-15T04:59:08.405Z,21.61
2018-07-15T05:01:41.062Z,21.75
2018-07-15T05:04:09.877Z,21.82
2018-07-15T05:06:38.688Z,21.87
2018-07-15T05:09:07.818Z,21.91
2018-07-15T05:11:37.009Z,21.95
2018-07-15T05:14:06.393Z,22.02
2018-07-15T05:16:34.850Z,21.99
2018-07-15T05:19:03.596Z,21.99
2018-07-15T05:21:32.586Z,22.02
2018-07-15T05:24:01.302Z,22.07
2018-07-15T05:26:30.190Z,22.11
2018-07-15T05:28:58.642Z,22.13
2018-07-15T05:31:27.416Z,22.11
2018-07-15T05:33:56.223Z,22.18
2018-07-15T05:36:24.698Z,22.25
2018-07-15T05:38:53.449Z,22.34
2018-07-15T05:41:22.586Z,22.42
2018-07-15T05:43:51.023Z,22.50
2018-07-15T05:46:19.505Z,22.54
2018-07-15T05:48:48.958Z,22.58
2018-07-15T05:51:17.451Z,22.59
2018-07-15T05:53:46.350Z,22.60
2018-07-15T05:56:15.003Z,22.66
2018-07-15T05:58:44.165Z,22.76
2018-07-15T06:01:13.321Z,22.82
2018-07-15T06:03:42.301Z,22.90
2018-07-15T06:06:11.124Z,22.99
2018-07-15T06:08:39.586Z,23.08
2018-07-15T06:11:08.441Z,23.16
2018-07-15T06:13:37.154Z,23.24
2018-07-15T06:16:05.989Z,23.36
2018-07-15T06:18:35.018Z,23.49
2018-07-15T06:21:03.992Z,23.56
2018-07-15T06:23:32.570Z,23.66
2018-07-15T06:26:01.399Z,23.72
2018-07-15T06:28:29.829Z,23.74
2018-07-15T06:30:58.630Z,23.79
2018-07-15T06:33:27.437Z,23.90
2018-07-15T06:35:56.196Z,24.01
2018-07-15T06:38:24.674Z,24.09
2018-07-15T06:40:53.589Z,24.17
2018-07-15T06:43:22.030Z,24.26
2018-07-15T06:45:50.737Z,24.37
2018-07-15T06:48:19.649Z,24.48
2018-07-15T06:50:48.085Z,24.59
2018-07-15T06:53:17.213Z,24.66
2018-07-15T06:55:46.234Z,24.74
2018-07-15T06:58:14.762Z,24.80
2018-07-15T07:00:43.342Z,24.90
2018-07-15T07:03:11.862Z,25.01
2018-07-15T07:05:40.307Z,25.10
2018-07-15T07:08:08.929Z,25.20
2018-07-15T07:10:37.721Z,25.33
2018-07-15T07:13:06.426Z,25.46
2018-07-15T07:15:34.980Z,25.63
2018-07-15T07:18:04.260Z,25.78
2018-07-15T07:20:32.920Z,25.88
2018-07-15T07:23:01.594Z,25.95
2018-07-15T07:25:30.053Z,26.09
2018-07-15T07:27:58.487Z,26.27
2018-07-15T07:30:27.354Z,26.44
2018-07-15T07:32:56.505Z,26.59
2018-07-15T07:35:25.309Z,26.90
2018-07-15T07:37:54.377Z,27.26
2018-07-15T07:40:23.479Z,27.72
2018-07-15T07:42:51.934Z,28.49
2018-07-15T07:45:21.359Z,29.33
2018-07-15T07:47:50.242Z,29.97
2018-07-15T07:50:18.833Z,30.39
2018-07-15T07:52:47.786Z,31.05
2018-07-15T07:55:17.437Z,31.76
2018-07-15T07:57:46.797Z,32.42
2018-07-15T08:00:15.474Z,32.83
2018-07-15T08:02:44.408Z,32.83
2018-07-15T08:05:12.867Z,33.14
2018-07-15T08:07:41.382Z,33.35
2018-07-15T08:10:09.989Z,33.29
2018-07-15T08:12:38.689Z,33.66
2018-07-15T08:15:07.196Z,33.94
2018-07-15T08:17:35.626Z,34.14
2018-07-15T08:20:04.954Z,34.21
2018-07-15T08:22:33.507Z,34.66
2018-07-15T08:25:02.111Z,34.99
2018-07-15T08:27:31.090Z,35.45
2018-07-15T08:30:11.130Z,35.65
2018-07-15T08:32:39.885Z,35.61
2018-07-15T08:35:08.521Z,35.84
2018-07-15T08:37:37.493Z,36.01
2018-07-15T08:40:06.825Z,36.20
2018-07-15T08:42:35.293Z,36.05
2018-07-15T08:45:04.390Z,36.02
2018-07-15T08:47:33.164Z,36.12
2018-07-15T08:50:01.612Z,36.37
2018-07-15T08:52:30.529Z,36.83
2018-07-15T08:54:59.206Z,37.20
2018-07-15T08:57:27.645Z,37.47
2018-07-15T08:59:56.602Z,36.93
2018-07-15T09:02:25.313Z,36.29
2018-07-15T09:04:54.281Z,36.68
2018-07-15T09:07:22.878Z,37.23
2018-07-15T09:09:51.309Z,37.68
2018-07-15T09:12:20.021Z,37.50
2018-07-15T09:14:49.618Z,36.23
2018-07-15T09:17:18.273Z,35.29
2018-07-15T09:19:47.829Z,34.65
2018-07-15T09:22:17.046Z,34.85
2018-07-15T09:24:45.613Z,35.24
2018-07-15T09:27:14.307Z,35.42
2018-07-15T09:29:43.305Z,35.51
2018-07-15T09:32:11.754Z,35.81
2018-07-15T09:34:40.634Z,36.24
2018-07-15T09:37:10.578Z,36.53
2018-07-15T09:39:39.036Z,36.33
2018-07-15T09:42:08.298Z,35.07
2018-07-15T09:44:37.224Z,34.27
2018-07-15T09:47:06.046Z,34.65
2018-07-15T09:49:34.546Z,34.58
2018-07-15T09:52:03.493Z,34.75
2018-07-15T09:54:32.017Z,34.87
2018-07-15T09:57:00.453Z,35.08
2018-07-15T09:59:29.445Z,35.53
2018-07-15T10:01:58.051Z,36.21
2018-07-15T10:04:26.581Z,36.93
2018-07-15T10:06:55.059Z,37.58
2018-07-15T10:09:23.977Z,37.51
2018-07-15T10:11:52.417Z,37.08
2018-07-15T10:14:20.908Z,37.18
2018-07-15T10:16:49.417Z,36.98
2018-07-15T10:19:18.881Z,36.95
2018-07-15T10:21:48.021Z,37.01
2018-07-15T10:24:17.251Z,36.38
2018-07-15T10:26:45.825Z,35.92
2018-07-15T10:29:14.414Z,36.22
2018-07-15T10:31:42.980Z,36.35
2018-07-15T10:34:11.443Z,36.62
2018-07-15T10:36:40.138Z,36.86
2018-07-15T10:39:09.038Z,36.64
2018-07-15T10:41:37.442Z,35.92
2018-07-15T10:44:06.513Z,35.98
2018-07-15T10:46:35.557Z,36.48
2018-07-15T10:49:04.313Z,36.99
2018-07-15T10:51:33.293Z,37.42
2018-07-15T10:54:02.113Z,37.85
2018-07-15T10:56:30.620Z,38.33
2018-07-15T10:58:59.628Z,38.58
2018-07-15T11:01:28.645Z,38.88
2018-07-15T11:03:57.085Z,39.22
2018-07-15T11:06:26.015Z,39.48
2018-07-15T11:08:54.679Z,39.67
2018-07-15T11:11:23.638Z,39.88
2018-07-15T11:13:52.825Z,40.00
2018-07-15T11:16:21.377Z,39.06
2018-07-15T11:18:50.056Z,38.24
2018-07-15T11:21:19.558Z,37.94
2018-07-15T11:23:48.402Z,37.31
2018-07-15T11:26:17.458Z,36.79
2018-07-15T11:28:46.525Z,36.37
2018-07-15T11:31:15.100Z,36.33
2018-07-15T11:33:43.654Z,36.45
2018-07-15T11:36:12.673Z,36.35
2018-07-15T11:38:41.133Z,36.60
2018-07-15T11:41:09.709Z,36.53
2018-07-15T11:43:38.645Z,36.80
2018-07-15T11:46:07.617Z,36.10
2018-07-15T11:48:36.306Z,36.35
2018-07-15T11:51:05.313Z,36.81
2018-07-15T11:53:34.507Z,37.33
2018-07-15T11:56:03.105Z,36.69
2018-07-15T11:58:32.002Z,37.01
2018-07-15T12:01:00.760Z,37.24
2018-07-15T12:03:29.439Z,37.34
2018-07-15T12:05:58.237Z,36.74
2018-07-15T12:08:27.014Z,35.95
2018-07-15T12:10:56.050Z,36.42
2018-07-15T12:13:24.815Z,37.10
2018-07-15T12:15:53.242Z,37.60
2018-07-15T12:18:21.888Z,36.70
2018-07-15T12:20:51.179Z,36.42
2018-07-15T12:23:19.601Z,36.61
2018-07-15T12:25:49.048Z,36.96
2018-07-15T12:28:18.021Z,37.54
2018-07-15T12:30:46.469Z,37.81
2018-07-15T12:33:14.935Z,37.33
2018-07-15T12:35:43.501Z,37.36
2018-07-15T12:38:12.281Z,37.71
2018-07-15T12:40:40.979Z,37.17
2018-07-15T12:43:09.572Z,36.58
2018-07-15T12:45:38.341Z,36.04
2018-07-15T12:48:07.125Z,35.33
2018-07-15T12:50:36.225Z,35.83
2018-07-15T12:53:05.021Z,36.21
2018-07-15T12:55:33.453Z,35.89
2018-07-15T12:58:02.967Z,36.28
2018-07-15T13:00:31.728Z,36.80
2018-07-15T13:03:00.221Z,36.18
2018-07-15T13:05:29.051Z,36.01
2018-07-15T13:07:57.726Z,36.38
2018-07-15T13:10:26.594Z,36.89
2018-07-15T13:12:55.613Z,37.08
2018-07-15T13:15:24.435Z,37.14
2018-07-15T13:17:53.202Z,37.58
2018-07-15T13:20:22.058Z,38.20
2018-07-15T13:22:50.489Z,38.19
2018-07-15T13:25:19.477Z,38.23
2018-07-15T13:27:48.565Z,37.10
2018-07-15T13:30:17.253Z,36.74
2018-07-15T13:32:46.601Z,36.83
2018-07-15T13:35:15.547Z,37.03
2018-07-15T13:37:44.009Z,37.50
2018-07-15T13:40:12.789Z,37.68
2018-07-15T13:42:41.694Z,37.77
2018-07-15T13:45:10.223Z,36.92
2018-07-15T13:47:38.893Z,35.94
2018-07-15T13:50:07.728Z,35.47
2018-07-15T13:52:36.145Z,35.33
2018-07-15T13:55:04.933Z,35.66
2018-07-15T13:57:34.111Z,36.01
2018-07-15T14:00:02.573Z,36.50
2018-07-15T14:02:31.269Z,37.08
2018-07-15T14:05:00.265Z,37.78
2018-07-15T14:07:28.767Z,37.97
2018-07-15T14:09:57.316Z,37.73
2018-07-15T14:12:26.333Z,37.97
2018-07-15T14:14:55.015Z,38.19
2018-07-15T14:17:23.703Z,38.01
2018-07-15T14:19:52.657Z,37.84
2018-07-15T14:22:21.099Z,37.89
2018-07-15T14:24:49.541Z,36.83
2018-07-15T14:27:19.029Z,35.60
2018-07-15T14:29:47.668Z,34.79
2018-07-15T14:32:16.306Z,34.68
2018-07-15T14:34:45.366Z,34.28
2018-07-15T14:37:13.854Z,33.80
2018-07-15T14:39:42.437Z,34.07
2018-07-15T14:42:12.697Z,34.74
2018-07-15T14:44:41.136Z,35.55
2018-07-15T14:47:09.619Z,35.98
2018-07-15T14:49:38.973Z,36.31
2018-07-15T14:52:07.404Z,36.50
2018-07-15T14:54:42.105Z,36.54
2018-07-15T14:57:10.545Z,36.38
2018-07-15T14:59:39.558Z,36.45
2018-07-15T15:02:08.462Z,36.67
2018-07-15T15:04:36.849Z,36.94
2018-07-15T15:07:05.325Z,36.80
2018-07-15T15:09:34.277Z,35.65
2018-07-15T15:12:02.938Z,34.55
2018-07-15T15:14:31.759Z,34.51
2018-07-15T15:17:00.429Z,35.20
2018-07-15T15:19:28.876Z,35.56
2018-07-15T15:21:57.354Z,35.91
2018-07-15T15:24:26.751Z,36.19
2018-07-15T15:26:55.455Z,36.36
2018-07-15T15:29:23.918Z,36.59
2018-07-15T15:31:53.646Z,36.07
2018-07-15T15:34:22.275Z,35.33
2018-07-15T15:36:50.921Z,34.78
2018-07-15T15:39:19.897Z,34.91
2018-07-15T15:41:48.393Z,35.36
2018-07-15T15:44:17.473Z,35.69
2018-07-15T15:46:46.794Z,35.44
2018-07-15T15:49:15.229Z,35.88
2018-07-15T15:51:43.815Z,36.56
2018-07-15T15:54:12.574Z,36.66
2018-07-15T15:56:41.027Z,37.09
2018-07-15T15:59:09.614Z,37.62
2018-07-15T16:01:38.586Z,37.38
2018-07-15T16:04:07.334Z,37.23
2018-07-15T16:06:35.798Z,37.35
2018-07-15T16:09:05.462Z,37.28
2018-07-15T16:11:34.582Z,37.15
2018-07-15T16:14:03.334Z,36.82
2018-07-15T16:16:32.212Z,36.74
2018-07-15T16:19:00.963Z,36.80
2018-07-15T16:21:29.853Z,36.73
2018-07-15T16:23:58.357Z,36.30
2018-07-15T16:26:26.828Z,35.89
2018-07-15T16:28:55.697Z,35.62
2018-07-15T16:31:24.265Z,35.46
2018-07-15T16:33:53.168Z,35.60
2018-07-15T16:36:22.234Z,36.00
2018-07-15T16:38:50.957Z,36.31
2018-07-15T16:41:19.407Z,36.21
2018-07-15T16:43:48.222Z,35.39
2018-07-15T16:46:16.737Z,34.92
2018-07-15T16:48:45.474Z,34.18
2018-07-15T16:51:14.173Z,34.48
2018-07-15T16:53:43.459Z,34.34
2018-07-15T16:56:12.211Z,34.32
2018-07-15T16:58:40.649Z,33.97
2018-07-15T17:01:09.533Z,33.81
2018-07-15T17:03:37.978Z,33.66
2018-07-15T17:06:06.598Z,33.70
2018-07-15T17:08:35.378Z,33.39
2018-07-15T17:11:04.265Z,32.90
2018-07-15T17:13:33.023Z,32.31
2018-07-15T17:16:01.847Z,32.03
2018-07-15T17:18:30.613Z,31.67
2018-07-15T17:20:59.064Z,31.51
2018-07-15T17:23:27.948Z,31.27
2018-07-15T17:25:56.751Z,30.83
2018-07-15T17:28:25.324Z,30.57
2018-07-15T17:30:54.409Z,30.42
2018-07-15T17:33:23.330Z,30.19
2018-07-15T17:35:51.814Z,29.99
2018-07-15T17:38:20.541Z,29.87
2018-07-15T17:40:49.440Z,29.60
2018-07-15T17:43:18.874Z,29.39
2018-07-15T17:45:48.232Z,29.35
2018-07-15T17:48:16.965Z,29.32
2018-07-15T17:50:45.418Z,29.18
2018-07-15T17:53:14.278Z,29.16
2018-07-15T17:55:42.705Z,29.18
2018-07-15T17:58:11.137Z,29.22
2018-07-15T18:00:40.126Z,29.16
2018-07-15T18:03:08.843Z,29.10
2018-07-15T18:05:37.293Z,29.04
2018-07-15T18:08:06.150Z,29.05
2018-07-15T18:10:35.199Z,29.03
2018-07-15T18:13:03.647Z,29.00
2018-07-15T18:15:32.533Z,28.91
2018-07-15T18:18:01.525Z,28.85
2018-07-15T18:20:30.757Z,28.88
2018-07-15T18:22:59.589Z,28.88
2018-07-15T18:25:28.504Z,28.87
2018-07-15T18:27:56.930Z,28.83
2018-07-15T18:30:25.741Z,28.80
2018-07-15T18:32:54.743Z,28.64
2018-07-15T18:35:23.274Z,28.64
2018-07-15T18:37:52.149Z,28.56
2018-07-15T18:40:20.737Z,28.42
2018-07-15T18:42:49.419Z,28.37
2018-07-15T18:45:18.792Z,28.31
2018-07-15T18:47:47.725Z,28.27
2018-07-15T18:50:16.465Z,28.26
2018-07-15T18:52:45.178Z,28.26
2018-07-15T18:55:13.618Z,28.22
2018-07-15T18:57:42.090Z,28.18
2018-07-15T19:00:11.386Z,27.93
2018-07-15T19:02:39.923Z,28.10
2018-07-15T19:05:08.978Z,28.01
2018-07-15T19:07:37.578Z,28.00
2018-07-15T19:10:06.665Z,27.98
2018-07-15T19:12:35.184Z,27.87
2018-07-15T19:15:03.881Z,27.81
2018-07-15T19:17:32.766Z,27.80
2018-07-15T19:20:01.459Z,27.78
2018-07-15T19:22:30.626Z,27.72
2018-07-15T19:24:59.172Z,27.60
2018-07-15T19:27:28.117Z,27.55
2018-07-15T19:29:56.685Z,27.55
2018-07-15T19:32:25.177Z,27.49
2018-07-15T19:34:53.740Z,27.45
2018-07-15T19:37:22.410Z,27.42
2018-07-15T19:39:50.882Z,27.37
2018-07-15T19:42:19.733Z,27.32
2018-07-15T19:44:48.922Z,27.28
2018-07-15T19:47:17.385Z,27.23
2018-07-15T19:49:45.962Z,27.14
2018-07-15T19:52:14.557Z,27.05
2018-07-15T19:54:43.025Z,27.01
2018-07-15T19:57:11.562Z,26.98
2018-07-15T19:59:40.583Z,26.93
2018-07-15T20:02:09.077Z,26.89
2018-07-15T20:04:37.747Z,26.83
2018-07-15T20:07:06.757Z,26.79
2018-07-15T20:09:35.208Z,26.72
2018-07-15T20:12:03.690Z,26.68
2018-07-15T20:14:33.042Z,26.61
2018-07-15T20:17:01.883Z,26.61
2018-07-15T20:19:30.326Z,26.55
2018-07-15T20:21:59.385Z,26.53
2018-07-15T20:24:27.836Z,26.44
2018-07-15T20:26:56.276Z,26.38
2018-07-15T20:29:25.467Z,26.33
2018-07-15T20:31:54.152Z,26.26
2018-07-15T20:34:22.676Z,26.19
2018-07-15T20:36:51.801Z,26.14
2018-07-15T20:39:20.590Z,26.11
2018-07-15T20:41:49.093Z,26.04
2018-07-15T20:44:18.626Z,25.99
2018-07-15T20:46:47.690Z,25.93
2018-07-15T20:49:16.241Z,25.88
2018-07-15T20:51:45.216Z,25.84
2018-07-15T20:54:13.953Z,25.82
2018-07-15T20:56:42.623Z,25.77
2018-07-15T20:59:11.297Z,25.75
2018-07-15T21:01:40.005Z,25.70
2018-07-15T21:04:08.451Z,25.64
2018-07-15T21:06:37.350Z,25.65
2018-07-15T21:09:06.889Z,25.60
2018-07-15T21:11:35.354Z,25.55
2018-07-15T21:14:04.241Z,25.50
2018-07-15T21:16:33.200Z,25.46
2018-07-15T21:19:01.705Z,25.41
2018-07-15T21:21:30.269Z,25.36
2018-07-15T21:23:59.102Z,25.31
2018-07-15T21:26:27.791Z,25.25
2018-07-15T21:28:56.933Z,25.18
2018-07-15T21:31:25.494Z,25.14
2018-07-15T21:33:54.410Z,25.12
2018-07-15T21:36:23.325Z,25.08
2018-07-15T21:38:51.773Z,25.04
2018-07-15T21:41:20.214Z,24.99
2018-07-15T21:43:49.110Z,24.96
2018-07-15T21:46:18.286Z,24.91
2018-07-15T21:48:46.724Z,24.89
2018-07-15T21:51:15.771Z,24.87
2018-07-15T21:53:44.209Z,24.82
2018-07-15T21:56:12.693Z,24.79
2018-07-15T21:58:41.807Z,24.55
2018-07-15T22:01:10.349Z,24.68
2018-07-15T22:03:38.785Z,24.62
2018-07-15T22:06:13.077Z,24.57
2018-07-15T22:08:52.678Z,24.54
2018-07-15T22:11:21.582Z,24.50
2018-07-15T22:13:50.286Z,24.46
2018-07-15T22:16:18.969Z,24.41
2018-07-15T22:18:48.461Z,24.37
2018-07-15T22:21:17.691Z,24.32
2018-07-15T22:23:46.105Z,24.28
2018-07-15T22:26:15.150Z,24.25
2018-07-15T22:28:43.597Z,24.22
2018-07-15T22:31:12.393Z,24.18
2018-07-15T22:33:41.216Z,24.14
2018-07-15T22:36:09.653Z,24.12
2018-07-15T22:38:38.404Z,24.04
2018-07-15T22:41:07.246Z,24.01
2018-07-15T22:43:35.702Z,24.01
2018-07-15T22:46:04.177Z,23.99
2018-07-15T22:48:33.851Z,23.92
2018-07-15T22:51:02.297Z,23.88
2018-07-15T22:53:30.789Z,23.85
2018-07-15T22:55:59.669Z,23.82
2018-07-15T22:58:28.118Z,23.81
2018-07-15T23:00:56.596Z,23.79
2018-07-15T23:03:25.513Z,23.79
2018-07-15T23:06:05.458Z,23.73
2018-07-15T23:08:34.085Z,23.60
2018-07-15T23:11:02.502Z,23.50
2018-07-15T23:13:30.965Z,23.48
2018-07-15T23:15:59.451Z,23.49
2018-07-15T23:18:29.010Z,23.47
2018-07-15T23:20:57.657Z,23.42
2018-07-15T23:23:26.382Z,23.45
2018-07-15T23:25:54.817Z,23.46
2018-07-15T23:28:23.292Z,23.43
2018-07-15T23:30:52.179Z,23.35
2018-07-15T23:33:20.609Z,23.31
2018-07-15T23:35:49.048Z,23.25
2018-07-15T23:38:18.813Z,23.18
2018-07-15T23:40:47.256Z,23.11
2018-07-15T23:43:16.189Z,23.09
2018-07-15T23:45:44.893Z,23.06
2018-07-15T23:48:13.543Z,22.96
2018-07-15T23:50:42.349Z,22.88
2018-07-15T23:53:10.991Z,22.80
2018-07-15T23:55:39.882Z,22.74
2018-07-15T23:58:08.353Z,22.71
